createdAt,value
2022-11-20T00:01:08.432Z,-4.91
2022-11-20T00:03:41.431Z,-4.90
2022-11-20T00:06:16.235Z,-4.89
2022-11-20T00:08:49.151Z,-4.86
2022-11-20T00:11:23.290Z,-4.86
2022-11-20T00:13:58.102Z,-4.86
2022-11-20T00:16:32.393Z,-4.85
2022-11-20T00:19:04.545Z,-4.82
2022-11-20T00:21:36.682Z,-4.80
2022-11-20T00:24:08.086Z,-4.78
2022-11-20T00:26:40.240Z,-4.75
2022-11-20T00:29:12.048Z,-4.71
2022-11-20T00:31:44.035Z,-4.70
2022-11-20T00:34:14.617Z,-4.70
2022-11-20T00:36:46.684Z,-4.69
2022-11-20T00:39:17.428Z,-4.68
2022-11-20T00:41:49.404Z,-4.66
2022-11-20T00:44:20.088Z,-4.66
2022-11-20T00:46:52.123Z,-4.69
2022-11-20T00:49:24.172Z,-4.76
2022-11-20T00:51:56.499Z,-4.86
2022-11-20T00:54:28.613Z,-4.93
2022-11-20T00:57:00.782Z,-4.99
2022-11-20T00:59:32.900Z,-5.08
2022-11-20T01:02:05.098Z,-5.13
2022-11-20T01:04:35.727Z,-5.15
2022-11-20T01:07:08.122Z,-5.19
2022-11-20T01:09:41.666Z,-5.21
2022-11-20T01:12:13.877Z,-5.26
2022-11-20T01:14:44.394Z,-5.28
2022-11-20T01:17:16.467Z,-5.30
2022-11-20T01:19:46.929Z,-5.31
2022-11-20T01:22:18.900Z,-5.32
2022-11-20T01:24:51.296Z,-5.35
2022-11-20T01:27:23.307Z,-5.36
2022-11-20T01:30:00.845Z,-5.38
2022-11-20T01:32:33.207Z,-5.40
2022-11-20T01:35:03.772Z,-5.42
2022-11-20T01:37:35.896Z,-5.43
2022-11-20T01:40:07.540Z,-5.42
2022-11-20T01:42:57.227Z,-5.44
2022-11-20T01:46:02.704Z,-5.44
2022-11-20T01:48:38.871Z,-5.47
2022-11-20T01:51:19.374Z,-5.47
2022-11-20T01:53:54.055Z,-5.48
2022-11-20T01:56:27.572Z,-5.46
2022-11-20T01:59:03.752Z,-5.44
2022-11-20T02:01:36.036Z,-5.40
2022-11-20T02:04:09.156Z,-5.36
2022-11-20T02:06:46.001Z,-5.32
2022-11-20T02:09:18.349Z,-5.31
2022-11-20T02:11:50.667Z,-5.35
2022-11-20T02:14:21.204Z,-5.38
2022-11-20T02:16:53.712Z,-5.41
2022-11-20T02:19:29.323Z,-5.46
2022-11-20T02:22:07.536Z,-5.53
2022-11-20T02:24:39.922Z,-5.59
2022-11-20T02:27:14.661Z,-5.60
2022-11-20T02:29:52.705Z,-5.57
2022-11-20T02:32:26.469Z,-5.67
2022-11-20T02:34:59.318Z,-5.75
2022-11-20T02:37:38.063Z,-5.77
2022-11-20T02:40:12.479Z,-5.76
2022-11-20T02:42:44.801Z,-5.75
2022-11-20T02:45:16.842Z,-5.77
2022-11-20T02:47:48.972Z,-5.79
2022-11-20T02:50:19.907Z,-5.77
2022-11-20T02:52:52.226Z,-5.75
2022-11-20T02:55:24.429Z,-5.74
2022-11-20T02:57:55.068Z,-5.75
2022-11-20T03:00:27.122Z,-5.81
2022-11-20T03:02:57.577Z,-5.86
2022-11-20T03:05:29.630Z,-5.92
2022-11-20T03:08:01.775Z,-5.93
2022-11-20T03:10:33.904Z,-5.98
2022-11-20T03:13:06.409Z,-6.03
2022-11-20T03:15:39.515Z,-6.04
2022-11-20T03:18:11.649Z,-6.02
2022-11-20T03:20:42.011Z,-5.99
2022-11-20T03:23:14.209Z,-6.01
2022-11-20T03:25:44.610Z,-6.07
2022-11-20T03:28:16.633Z,-6.07
2022-11-20T03:30:47.075Z,-6.05
2022-11-20T03:33:19.188Z,-6.03
2022-11-20T03:35:49.573Z,-6.04
2022-11-20T03:38:21.634Z,-6.06
2022-11-20T03:40:52.086Z,-6.07
2022-11-20T03:43:24.348Z,-6.09
2022-11-20T03:45:56.314Z,-6.11
2022-11-20T03:48:29.027Z,-6.13
2022-11-20T03:51:15.235Z,-6.14
2022-11-20T03:53:48.937Z,-6.16
2022-11-20T03:56:23.338Z,-6.21
2022-11-20T03:58:55.641Z,-6.29
2022-11-20T04:01:30.802Z,-6.34
2022-11-20T04:04:03.052Z,-6.33
2022-11-20T04:06:38.684Z,-6.32
2022-11-20T04:09:10.932Z,-6.34
2022-11-20T04:11:43.654Z,-6.33
2022-11-20T04:14:18.610Z,-6.31
2022-11-20T04:16:50.691Z,-6.28
2022-11-20T04:19:22.995Z,-6.27
2022-11-20T04:21:55.225Z,-6.25
2022-11-20T04:24:28.290Z,-6.24
2022-11-20T04:27:00.311Z,-6.26
2022-11-20T04:29:30.732Z,-6.27
2022-11-20T04:32:02.772Z,-6.27
2022-11-20T04:34:33.182Z,-6.25
2022-11-20T04:37:05.387Z,-6.24
2022-11-20T04:39:37.387Z,-6.21
2022-11-20T04:42:25.483Z,-6.19
2022-11-20T04:44:57.879Z,-6.15
2022-11-20T04:47:30.183Z,-6.12
2022-11-20T04:50:02.401Z,-6.14
2022-11-20T04:52:32.918Z,-6.19
2022-11-20T04:55:05.378Z,-6.27
2022-11-20T04:57:37.326Z,-6.35
2022-11-20T05:00:09.082Z,-6.40
2022-11-20T05:02:41.289Z,-6.41
2022-11-20T05:05:13.855Z,-6.43
2022-11-20T05:07:45.938Z,-6.43
2022-11-20T05:10:16.989Z,-6.40
2022-11-20T05:12:49.198Z,-6.39
2022-11-20T05:15:21.471Z,-6.36
2022-11-20T05:17:54.325Z,-6.36
2022-11-20T05:20:26.574Z,-6.32
2022-11-20T05:23:01.345Z,-6.29
2022-11-20T05:25:33.340Z,-6.27
2022-11-20T05:28:05.506Z,-6.27
2022-11-20T05:30:37.499Z,-6.26
2022-11-20T05:33:09.871Z,-6.25
2022-11-20T05:35:42.052Z,-6.24
2022-11-20T05:38:14.225Z,-6.25
2022-11-20T05:40:44.744Z,-6.26
2022-11-20T05:43:17.128Z,-6.25
2022-11-20T05:45:56.722Z,-6.24
2022-11-20T05:48:29.212Z,-6.26
2022-11-20T05:51:02.440Z,-6.29
2022-11-20T05:53:35.709Z,-6.33
2022-11-20T05:56:11.832Z,-6.33
2022-11-20T05:58:44.252Z,-6.34
2022-11-20T06:01:21.255Z,-6.33
2022-11-20T06:03:54.608Z,-6.33
2022-11-20T06:06:27.330Z,-6.34
2022-11-20T06:08:59.995Z,-6.35
2022-11-20T06:11:32.112Z,-6.36
2022-11-20T06:14:03.137Z,-6.38
2022-11-20T06:16:35.271Z,-6.40
2022-11-20T06:19:07.562Z,-6.40
2022-11-20T06:21:38.017Z,-6.38
2022-11-20T06:24:12.439Z,-6.37
2022-11-20T06:26:44.623Z,-6.38
2022-11-20T06:29:16.814Z,-6.37
2022-11-20T06:31:48.936Z,-6.33
2022-11-20T06:34:21.600Z,-6.26
2022-11-20T06:36:53.557Z,-6.20
2022-11-20T06:39:27.173Z,-6.14
2022-11-20T06:41:59.562Z,-6.08
2022-11-20T06:44:31.943Z,-6.02
2022-11-20T06:47:02.406Z,-5.87
2022-11-20T06:49:35.345Z,-5.77
2022-11-20T06:52:07.673Z,-5.60
2022-11-20T06:54:39.567Z,-5.45
2022-11-20T06:57:10.104Z,-5.32
2022-11-20T06:59:43.130Z,-5.22
2022-11-20T07:02:15.304Z,-5.18
2022-11-20T07:04:48.086Z,-5.23
2022-11-20T07:07:20.786Z,-5.23
2022-11-20T07:09:54.469Z,-5.23
2022-11-20T07:12:26.924Z,-5.21
2022-11-20T07:15:00.926Z,-5.14
2022-11-20T07:17:33.501Z,-4.97
2022-11-20T07:20:08.083Z,-4.64
2022-11-20T07:22:41.329Z,-4.24
2022-11-20T07:25:14.265Z,-3.84
2022-11-20T07:27:47.447Z,-3.39
2022-11-20T07:30:19.938Z,-2.89
2022-11-20T07:32:55.319Z,-2.44
2022-11-20T07:35:28.866Z,-2.02
2022-11-20T07:38:02.154Z,-1.67
2022-11-20T07:40:36.300Z,-1.29
2022-11-20T07:43:09.514Z,-0.97
2022-11-20T07:45:42.012Z,-0.65
2022-11-20T07:48:13.448Z,-0.40
2022-11-20T07:50:45.604Z,-0.24
2022-11-20T07:53:21.691Z,-0.05
2022-11-20T07:55:55.032Z,0.06
2022-11-20T07:58:27.705Z,0.02
2022-11-20T08:01:05.415Z,-0.13
2022-11-20T08:03:39.904Z,-0.32
2022-11-20T08:06:12.787Z,-0.46
2022-11-20T08:08:45.623Z,-0.53
2022-11-20T08:11:35.544Z,-0.51
2022-11-20T08:14:14.458Z,-0.29
2022-11-20T08:16:49.261Z,-0.07
2022-11-20T08:19:23.240Z,0.19
2022-11-20T08:21:55.498Z,0.47
2022-11-20T08:24:27.861Z,0.71
2022-11-20T08:27:01.089Z,0.93
2022-11-20T08:29:33.167Z,1.17
2022-11-20T08:32:05.486Z,1.28
2022-11-20T08:34:43.911Z,1.39
2022-11-20T08:37:15.888Z,1.53
2022-11-20T08:39:48.180Z,1.64
2022-11-20T08:42:20.219Z,1.70
2022-11-20T08:44:52.226Z,1.77
2022-11-20T08:47:24.307Z,1.83
2022-11-20T08:49:54.945Z,1.92
2022-11-20T08:52:27.012Z,1.91
2022-11-20T08:54:57.601Z,1.98
2022-11-20T08:57:29.603Z,2.02
2022-11-20T09:00:06.338Z,2.01
2022-11-20T09:02:38.599Z,2.01
2022-11-20T09:05:12.463Z,2.13
2022-11-20T09:07:44.528Z,2.33
2022-11-20T09:10:23.959Z,2.54
2022-11-20T09:12:57.463Z,2.62
2022-11-20T09:15:29.780Z,2.72
2022-11-20T09:18:03.651Z,2.94
2022-11-20T09:20:35.659Z,3.14
2022-11-20T09:23:07.791Z,3.31
2022-11-20T09:25:39.933Z,3.39
2022-11-20T09:28:10.488Z,3.52
2022-11-20T09:30:42.646Z,3.60
2022-11-20T09:33:14.736Z,3.75
2022-11-20T09:35:45.666Z,3.89
2022-11-20T09:38:17.708Z,3.96
2022-11-20T09:40:58.024Z,4.06
2022-11-20T09:43:43.651Z,4.12
2022-11-20T09:46:22.631Z,4.15
2022-11-20T09:49:09.873Z,4.13
2022-11-20T09:51:56.727Z,4.16
2022-11-20T09:54:35.046Z,4.20
2022-11-20T09:57:13.208Z,4.21
2022-11-20T09:59:48.860Z,4.25
2022-11-20T10:02:30.866Z,4.20
2022-11-20T10:05:09.108Z,4.10
2022-11-20T10:07:45.935Z,3.98
2022-11-20T10:10:29.783Z,4.02
2022-11-20T10:13:17.419Z,4.08
2022-11-20T10:16:03.328Z,3.96
2022-11-20T10:18:52.776Z,3.81
2022-11-20T10:21:34.624Z,3.89
2022-11-20T10:24:36.989Z,3.94
2022-11-20T10:27:18.220Z,3.99
2022-11-20T10:30:01.785Z,4.07
2022-11-20T10:32:38.891Z,4.12
2022-11-20T10:35:22.362Z,4.10
2022-11-20T10:38:00.421Z,4.05
2022-11-20T10:40:37.628Z,3.91
2022-11-20T10:43:17.587Z,3.67
2022-11-20T10:45:57.608Z,3.48
2022-11-20T10:48:33.281Z,3.39
2022-11-20T10:51:24.056Z,3.30
2022-11-20T10:54:08.518Z,3.23
2022-11-20T10:56:50.243Z,3.11
2022-11-20T10:59:47.742Z,2.98
2022-11-20T11:02:21.994Z,2.86
2022-11-20T11:04:55.797Z,2.74
2022-11-20T11:07:31.215Z,2.61
2022-11-20T11:10:03.649Z,2.44
2022-11-20T11:12:35.766Z,2.31
2022-11-20T11:15:14.823Z,2.15
2022-11-20T11:17:51.278Z,2.05
2022-11-20T11:20:24.385Z,1.95
2022-11-20T11:22:58.972Z,1.86
2022-11-20T11:25:35.553Z,1.75
2022-11-20T11:28:22.378Z,1.62
2022-11-20T11:30:54.505Z,1.53
2022-11-20T11:33:25.702Z,1.49
2022-11-20T11:35:59.530Z,1.43
2022-11-20T11:38:37.855Z,1.36
2022-11-20T11:41:17.437Z,1.30
2022-11-20T11:44:13.615Z,1.30
2022-11-20T11:46:53.914Z,1.30
2022-11-20T11:49:26.148Z,1.34
2022-11-20T11:52:07.417Z,1.36
2022-11-20T11:54:45.359Z,1.35
2022-11-20T11:57:22.809Z,1.35
2022-11-20T12:00:06.363Z,1.33
2022-11-20T12:02:47.344Z,1.30
2022-11-20T12:05:25.607Z,1.25
2022-11-20T12:08:09.441Z,1.19
2022-11-20T12:10:54.326Z,1.15
2022-11-20T12:13:37.487Z,1.11
2022-11-20T12:16:14.913Z,1.12
2022-11-20T12:18:48.544Z,1.11
2022-11-20T12:21:28.519Z,1.10
2022-11-20T12:24:34.581Z,1.08
2022-11-20T12:27:26.905Z,1.04
2022-11-20T12:30:05.783Z,0.99
2022-11-20T12:32:53.980Z,0.98
2022-11-20T12:35:44.182Z,0.96
2022-11-20T12:38:45.305Z,0.94
2022-11-20T12:41:46.561Z,0.94
2022-11-20T12:44:53.322Z,0.98
2022-11-20T12:47:34.248Z,1.00
2022-11-20T12:50:17.531Z,1.01
2022-11-20T12:52:56.822Z,0.99
2022-11-20T12:55:35.939Z,0.98
2022-11-20T12:58:13.833Z,0.97
2022-11-20T13:00:56.971Z,0.97
2022-11-20T13:03:40.125Z,0.94
2022-11-20T13:06:19.639Z,0.92
2022-11-20T13:08:57.646Z,0.90
2022-11-20T13:11:39.525Z,0.88
2022-11-20T13:14:34.596Z,0.88
2022-11-20T13:17:14.504Z,0.84
2022-11-20T13:19:52.613Z,0.83
2022-11-20T13:22:30.331Z,0.78
2022-11-20T13:25:03.327Z,0.75
2022-11-20T13:27:36.289Z,0.72
2022-11-20T13:30:20.614Z,0.70
2022-11-20T13:32:55.484Z,0.70
2022-11-20T13:35:34.609Z,0.68
2022-11-20T13:38:12.845Z,0.66
2022-11-20T13:40:55.451Z,0.62
2022-11-20T13:43:37.597Z,0.59
2022-11-20T13:46:12.026Z,0.56
2022-11-20T13:48:47.538Z,0.56
2022-11-20T13:51:35.182Z,0.57
2022-11-20T13:54:35.001Z,0.58
2022-11-20T13:57:21.485Z,0.58
2022-11-20T14:00:00.209Z,0.58
2022-11-20T14:02:33.750Z,0.59
2022-11-20T14:05:09.866Z,0.60
2022-11-20T14:07:44.522Z,0.61
2022-11-20T14:10:30.095Z,0.62
2022-11-20T14:13:17.683Z,0.60
2022-11-20T14:15:58.946Z,0.59
2022-11-20T14:18:31.820Z,0.61
2022-11-20T14:21:06.388Z,0.62
2022-11-20T14:23:40.221Z,0.63
2022-11-20T14:26:17.815Z,0.61
2022-11-20T14:28:53.315Z,0.61
2022-11-20T14:31:28.409Z,0.62
2022-11-20T14:34:00.977Z,0.64
2022-11-20T14:36:34.626Z,0.67
2022-11-20T14:39:06.726Z,0.68
2022-11-20T14:41:38.778Z,0.71
2022-11-20T14:44:13.426Z,0.73
2022-11-20T14:46:46.252Z,0.74
2022-11-20T14:49:30.880Z,0.73
2022-11-20T14:52:17.989Z,0.70
2022-11-20T14:54:52.034Z,0.69
2022-11-20T14:57:27.685Z,0.68
2022-11-20T15:00:21.489Z,0.66
2022-11-20T15:02:54.598Z,0.65
2022-11-20T15:05:28.725Z,0.64
2022-11-20T15:08:11.723Z,0.65
2022-11-20T15:10:50.310Z,0.65
2022-11-20T15:13:29.521Z,0.63
2022-11-20T15:16:02.812Z,0.62
2022-11-20T15:18:40.195Z,0.62
2022-11-20T15:21:15.677Z,0.63
2022-11-20T15:23:49.413Z,0.63
2022-11-20T15:26:26.679Z,0.61
2022-11-20T15:29:00.301Z,0.58
2022-11-20T15:31:33.490Z,0.55
2022-11-20T15:34:08.728Z,0.54
2022-11-20T15:36:41.773Z,0.54
2022-11-20T15:39:14.936Z,0.56
2022-11-20T15:41:47.575Z,0.57
2022-11-20T15:44:21.728Z,0.60
2022-11-20T15:46:54.577Z,0.59
2022-11-20T15:49:26.612Z,0.55
2022-11-20T15:51:58.608Z,0.51
2022-11-20T15:54:30.932Z,0.50
2022-11-20T15:57:03.929Z,0.51
2022-11-20T15:59:38.092Z,0.50
2022-11-20T16:02:18.739Z,0.47
2022-11-20T16:04:53.641Z,0.46
2022-11-20T16:07:26.343Z,0.46
2022-11-20T16:09:58.679Z,0.48
2022-11-20T16:12:48.552Z,0.49
2022-11-20T16:15:38.999Z,0.48
2022-11-20T16:18:13.219Z,0.45
2022-11-20T16:20:46.277Z,0.44
2022-11-20T16:23:18.913Z,0.39
2022-11-20T16:25:52.605Z,0.33
2022-11-20T16:28:25.541Z,0.29
2022-11-20T16:30:58.269Z,0.23
2022-11-20T16:33:31.439Z,0.19
2022-11-20T16:36:10.468Z,0.15
2022-11-20T16:38:44.021Z,0.11
2022-11-20T16:41:16.036Z,0.11
2022-11-20T16:43:50.212Z,0.11
2022-11-20T16:46:24.347Z,0.11
2022-11-20T16:48:58.825Z,0.08
2022-11-20T16:51:33.326Z,0.04
2022-11-20T16:54:06.899Z,-0.03
2022-11-20T16:56:40.157Z,-0.07
2022-11-20T16:59:12.472Z,-0.08
2022-11-20T17:01:44.756Z,-0.09
2022-11-20T17:04:15.512Z,-0.11
2022-11-20T17:06:48.007Z,-0.16
2022-11-20T17:09:20.221Z,-0.17
2022-11-20T17:11:50.911Z,-0.18
2022-11-20T17:14:23.269Z,-0.19
2022-11-20T17:16:55.500Z,-0.21
2022-11-20T17:19:27.672Z,-0.20
2022-11-20T17:21:59.885Z,-0.20
2022-11-20T17:24:32.348Z,-0.20
2022-11-20T17:27:04.639Z,-0.21
2022-11-20T17:29:41.873Z,-0.22
2022-11-20T17:32:14.377Z,-0.24
2022-11-20T17:34:46.367Z,-0.28
2022-11-20T17:37:18.433Z,-0.33
2022-11-20T17:39:50.379Z,-0.36
2022-11-20T17:42:29.922Z,-0.40
2022-11-20T17:45:02.072Z,-0.43
2022-11-20T17:47:33.120Z,-0.45
2022-11-20T17:50:06.672Z,-0.49
2022-11-20T17:52:39.010Z,-0.52
2022-11-20T17:55:13.233Z,-0.53
2022-11-20T17:58:02.940Z,-0.57
2022-11-20T18:00:35.802Z,-0.60
2022-11-20T18:03:08.213Z,-0.64
2022-11-20T18:05:41.396Z,-0.65
2022-11-20T18:08:14.288Z,-0.67
2022-11-20T18:10:46.698Z,-0.68
2022-11-20T18:13:19.280Z,-0.69
2022-11-20T18:15:51.575Z,-0.71
2022-11-20T18:18:23.824Z,-0.72
2022-11-20T18:20:57.371Z,-0.73
2022-11-20T18:23:31.660Z,-0.74
2022-11-20T18:26:05.956Z,-0.76
2022-11-20T18:28:41.079Z,-0.77
2022-11-20T18:31:14.347Z,-0.79
2022-11-20T18:33:47.874Z,-0.80
2022-11-20T18:36:22.426Z,-0.79
2022-11-20T18:38:57.024Z,-0.76
2022-11-20T18:41:48.197Z,-0.72
2022-11-20T18:44:42.016Z,-0.66
2022-11-20T18:47:16.995Z,-0.62
2022-11-20T18:49:53.188Z,-0.57
2022-11-20T18:52:26.921Z,-0.51
2022-11-20T18:54:59.368Z,-0.46
2022-11-20T18:57:32.318Z,-0.40
2022-11-20T19:00:09.384Z,-0.36
2022-11-20T19:02:43.231Z,-0.32
2022-11-20T19:05:17.035Z,-0.29
2022-11-20T19:07:51.626Z,-0.27
2022-11-20T19:10:24.915Z,-0.22
2022-11-20T19:12:58.777Z,-0.18
2022-11-20T19:15:31.139Z,-0.17
2022-11-20T19:18:03.460Z,-0.15
2022-11-20T19:20:35.947Z,-0.12
2022-11-20T19:23:08.577Z,-0.10
2022-11-20T19:25:40.925Z,-0.07
2022-11-20T19:28:13.177Z,-0.03
2022-11-20T19:30:43.761Z,0.00
2022-11-20T19:33:15.968Z,0.01
2022-11-20T19:35:48.709Z,0.03
2022-11-20T19:38:20.937Z,0.06
2022-11-20T19:40:51.446Z,0.09
2022-11-20T19:43:23.533Z,0.12
2022-11-20T19:45:56.728Z,0.15
2022-11-20T19:48:30.983Z,0.18
2022-11-20T19:51:12.045Z,0.22
2022-11-20T19:53:44.928Z,0.24
2022-11-20T19:56:17.176Z,0.27
2022-11-20T19:58:49.592Z,0.30
2022-11-20T20:01:24.392Z,0.32
2022-11-20T20:04:01.442Z,0.30
2022-11-20T20:06:35.428Z,0.29
2022-11-20T20:09:10.243Z,0.26
2022-11-20T20:11:46.563Z,0.21
2022-11-20T20:14:19.559Z,0.19
2022-11-20T20:16:51.865Z,0.19
2022-11-20T20:19:24.846Z,0.22
2022-11-20T20:21:57.327Z,0.26
2022-11-20T20:24:29.383Z,0.30
2022-11-20T20:27:01.426Z,0.32
2022-11-20T20:29:33.385Z,0.34
2022-11-20T20:32:05.562Z,0.36
2022-11-20T20:34:35.950Z,0.39
2022-11-20T20:37:08.291Z,0.40
2022-11-20T20:39:38.789Z,0.42
2022-11-20T20:42:11.040Z,0.43
2022-11-20T20:45:00.605Z,0.40
2022-11-20T20:47:34.336Z,0.36
2022-11-20T20:50:07.604Z,0.37
2022-11-20T20:52:40.247Z,0.41
2022-11-20T20:55:14.209Z,0.43
2022-11-20T20:57:46.267Z,0.46
2022-11-20T21:00:19.337Z,0.47
2022-11-20T21:02:51.405Z,0.49
2022-11-20T21:05:23.534Z,0.50
2022-11-20T21:08:11.604Z,0.51
2022-11-20T21:10:43.640Z,0.54
2022-11-20T21:13:15.835Z,0.56
2022-11-20T21:15:49.969Z,0.58
2022-11-20T21:18:23.657Z,0.59
2022-11-20T21:21:15.323Z,0.61
2022-11-20T21:23:49.756Z,0.60
2022-11-20T21:26:22.769Z,0.60
2022-11-20T21:28:55.079Z,0.55
2022-11-20T21:31:28.784Z,0.49
2022-11-20T21:34:01.488Z,0.46
2022-11-20T21:36:34.007Z,0.44
2022-11-20T21:39:06.483Z,0.41
2022-11-20T21:41:38.994Z,0.40
2022-11-20T21:44:31.392Z,0.39
2022-11-20T21:47:03.948Z,0.40
2022-11-20T21:49:36.142Z,0.43
2022-11-20T21:52:08.448Z,0.44
2022-11-20T21:54:40.822Z,0.45
2022-11-20T21:57:12.865Z,0.46
2022-11-20T21:59:44.881Z,0.46
2022-11-20T22:02:18.279Z,0.44
2022-11-20T22:04:51.433Z,0.40
2022-11-20T22:07:23.599Z,0.33
2022-11-20T22:09:55.813Z,0.29
2022-11-20T22:12:26.431Z,0.26
2022-11-20T22:14:58.437Z,0.20
2022-11-20T22:17:48.016Z,0.15
2022-11-20T22:20:20.436Z,0.10
2022-11-20T22:22:52.686Z,0.06
2022-11-20T22:25:23.093Z,0.01
2022-11-20T22:27:55.106Z,-0.03
2022-11-20T22:30:27.807Z,-0.04
2022-11-20T22:32:59.881Z,-0.05
2022-11-20T22:35:32.792Z,-0.06
2022-11-20T22:38:04.820Z,-0.07
2022-11-20T22:40:37.269Z,-0.09
2022-11-20T22:43:07.736Z,-0.11
2022-11-20T22:45:39.901Z,-0.13
2022-11-20T22:48:12.135Z,-0.13
2022-11-20T22:50:44.223Z,-0.13
2022-11-20T22:53:14.763Z,-0.14
2022-11-20T22:55:49.957Z,-0.17
2022-11-20T22:58:22.248Z,-0.20
2022-11-20T23:00:54.280Z,-0.21
2022-11-20T23:03:26.415Z,-0.23
2022-11-20T23:05:59.536Z,-0.27
2022-11-20T23:08:32.190Z,-0.31
2022-11-20T23:11:05.893Z,-0.34
2022-11-20T23:13:38.398Z,-0.36
2022-11-20T23:16:13.941Z,-0.41
2022-11-20T23:18:46.855Z,-0.44
2022-11-20T23:21:20.615Z,-0.45
2022-11-20T23:23:53.944Z,-0.48
2022-11-20T23:26:28.484Z,-0.60
2022-11-20T23:29:01.682Z,-0.71
2022-11-20T23:31:35.628Z,-0.77
2022-11-20T23:34:07.679Z,-0.81
2022-11-20T23:36:39.775Z,-0.84
2022-11-20T23:39:10.347Z,-0.86
2022-11-20T23:41:42.396Z,-0.88
2022-11-20T23:44:14.350Z,-0.91
2022-11-20T23:46:46.427Z,-0.94
2022-11-20T23:49:18.408Z,-0.97
2022-11-20T23:51:48.806Z,-0.99
2022-11-20T23:54:20.769Z,-1.02
2022-11-20T23:56:52.749Z,-1.05
2022-11-20T23:59:23.288Z,-1.10
